Tasman Crusader — A8NQ7 — position and weather

sailwx.info

Track history (hours):
 
Tides and Currents Weather Stations Pressure Air Temp Water Temp Dewpoint Dewpoint Depression Visibility Wind Speed Wind Dir Waves Ship Positions

Tasman Crusader

Last reported at 2018-Jul-02 15:02 UTC. Time now 2018-Jul-16 00:39 UTC.
Position N 28°30' W 116°13'.
Warning: this ship's position is 13 days out of date.

Length 186 m; draft 8.6 m.

Type: Ship (hazmat cat A). MMSI: 636091434.

Date/timePositionNaut miles runAvg speedWind from/ knotsBaromVisibWave heightAir tempDewpointWater temp
2018-Jul-02 15:02N 28°30' W 116°13'118.5
2018-Jul-02 15:00N 28°30' W 116°14'1718.4
2018-Jul-02 14:05N 28°44' W 116°25'118.6
2018-Jul-02 14:00N 28°45' W 116°26'15318.8
2018-Jul-02 05:53N 30°51' W 118°06'718.7
2018-Jul-02 05:31N 30°57' W 118°11'1318.8
2018-Jul-02 04:50N 31°07' W 118°19'618.5
2018-Jul-02 04:31N 31°12' W 118°23'918.6
2018-Jul-02 04:00N 31°20' W 118°29'1018.8
2018-Jul-02 03:29N 31°28' W 118°36'918.5
2018-Jul-02 03:00N 31°35' W 118°42'1118.5
2018-Jul-02 02:24N 31°44' W 118°50'719.0
2018-Jul-02 02:00N 31°50' W 118°55'1019.2
2018-Jul-02 01:30N 31°58' W 119°02'918.9
2018-Jul-02 01:01N 32°05' W 119°09'919.0
2018-Jul-02 00:31N 32°12' W 119°16'1019.0
2018-Jul-02 00:00N 32°21' W 119°22'918.9
2018-Jul-01 23:30N 32°28' W 119°28'919.2
2018-Jul-01 23:01N 32°36' W 119°35'1319.4
2018-Jul-01 22:21N 32°46' W 119°44'819.7
2018-Jul-01 21:58N 32°52' W 119°50'919.6
2018-Jul-01 21:30N 32°59' W 119°56'1019.1
2018-Jul-01 21:01N 33°07' W 120°02'918.6
2018-Jul-01 20:31N 33°15' W 120°09'918.3
2018-Jul-01 20:00N 33°22' W 120°15'918.8
2018-Jul-01 19:31N 33°30' W 120°22'1019.0
2018-Jul-01 19:00N 33°37' W 120°29'919.0
2018-Jul-01 18:30N 33°45' W 120°36'918.5
2018-Jul-01 18:01N 33°52' W 120°42'1019.0
2018-Jul-01 17:30N 34°00' W 120°49'1018.6
2018-Jul-01 16:59N 34°08' W 120°56'918.7
2018-Jul-01 16:30N 34°15' W 121°02'1019.1
2018-Jul-01 16:00N 34°23' W 121°09'1019.1
2018-Jul-01 15:29N 34°31' W 121°15'919.3
2018-Jul-01 15:00N 34°40' W 121°20'919.0
2018-Jul-01 14:30N 34°48' W 121°25'1019.3
2018-Jul-01 14:00N 34°57' W 121°30'1019.1
2018-Jul-01 13:30N 35°06' W 121°35'1019.1
2018-Jul-01 13:00N 35°14' W 121°40'919.5
2018-Jul-01 12:30N 35°23' W 121°45'1019.6
2018-Jul-01 12:00N 35°32' W 121°51'1019.4
2018-Jul-01 11:29N 35°41' W 121°56'919.2
2018-Jul-01 11:00N 35°49' W 122°01'1019.5
2018-Jul-01 10:30N 35°58' W 122°06'1020.3
2018-Jul-01 10:00N 36°07' W 122°12'1019.9
2018-Jul-01 09:30N 36°16' W 122°17'1019.8
2018-Jul-01 09:00N 36°25' W 122°22'918.9
2018-Jul-01 08:30N 36°34' W 122°26'919.0
2018-Jul-01 08:00N 36°43' W 122°30'1019.4
2018-Jul-01 07:30N 36°52' W 122°34'1019.3
2018-Jul-01 06:58N 37°02' W 122°38'919.1
2018-Jul-01 06:30N 37°10' W 122°42'917.5
2018-Jul-01 06:00N 37°19' W 122°43'510.0
2018-Jul-01 05:31N 37°24' W 122°43'5 9.9
2018-Jul-01 05:01N 37°29' W 122°43'5 9.9
2018-Jul-01 04:30N 37°34' W 122°43'510.0
2018-Jul-01 04:00N 37°39' W 122°43'5 9.7
2018-Jul-01 03:31N 37°43' W 122°41'5 9.6
2018-Jul-01 03:00N 37°46' W 122°37'917.7
2018-Jul-01 02:30N 37°49' W 122°26'612.5
2018-Jul-01 02:00N 37°48' W 122°18'0 0.2
2018-Jul-01 01:30N 37°48' W 122°19'0 0.0
2018-Jul-01 00:58N 37°48' W 122°19'0 0.0
2018-Jul-01 00:28N 37°48' W 122°19'0 0.0
2018-Jun-30 23:58N 37°48' W 122°19'0 0.0
2018-Jun-30 23:28N 37°48' W 122°19'0 0.0
2018-Jun-30 22:58N 37°48' W 122°19'0 0.0
2018-Jun-30 22:28N 37°48' W 122°19'0 0.0
2018-Jun-30 21:58N 37°48' W 122°19'0 0.1
2018-Jun-30 21:28N 37°48' W 122°19'0 0.1
2018-Jun-30 20:58N 37°48' W 122°19'0 0.0
2018-Jun-30 20:28N 37°48' W 122°19'0 0.0
2018-Jun-30 19:58N 37°48' W 122°19'0 0.0
2018-Jun-30 19:28N 37°48' W 122°19'0 0.0
2018-Jun-30 18:58N 37°48' W 122°19'0 0.0
2018-Jun-30 18:28N 37°48' W 122°19'0 0.0
2018-Jun-30 17:58N 37°48' W 122°19'0 0.0
2018-Jun-30 17:28N 37°48' W 122°19'0 0.0
2018-Jun-30 16:58N 37°48' W 122°19'0 0.0
2018-Jun-30 16:28N 37°48' W 122°19'0 0.0
2018-Jun-30 15:58N 37°48' W 122°19'0 0.0
2018-Jun-30 15:28N 37°48' W 122°19'0 0.0
2018-Jun-30 14:58N 37°48' W 122°19'0 0.0
2018-Jun-30 14:28N 37°48' W 122°19'0 0.0
2018-Jun-30 13:58N 37°48' W 122°19'0 0.0
2018-Jun-30 13:28N 37°48' W 122°19'0 0.0
2018-Jun-30 12:58N 37°48' W 122°19'0 0.0
2018-Jun-30 12:28N 37°48' W 122°19'0 0.0
2018-Jun-30 11:58N 37°48' W 122°19'0 0.0
2018-Jun-30 11:30N 37°48' W 122°19'0 0.7
2018-Jun-30 11:00N 37°48' W 122°19'3 6.8
2018-Jun-30 10:31N 37°49' W 122°23'5 9.1
2018-Jun-30 10:00N 37°49' W 122°29'714.5
2018-Jun-30 09:30N 37°46' W 122°37'5 9.3
2018-Jun-30 09:00N 37°42' W 122°40'5 9.6
2018-Jun-30 08:30N 37°37' W 122°40'5 9.7
2018-Jun-30 08:00N 37°33' W 122°40'5 9.8
2018-Jun-30 07:30N 37°28' W 122°40'5 9.9
2018-Jun-30 07:00N 37°23' W 122°40'5 9.8
2018-Jun-30 06:30N 37°18' W 122°40'510.9
2018-Jun-30 06:00N 37°12' W 122°40'611.7
2018-Jun-30 05:30N 37°07' W 122°39'611.9
2018-Jun-30 05:00N 37°01' W 122°36'613.0
2018-Jun-30 04:30N 36°55' W 122°33'814.5
2018-Jun-30 03:58N 36°48' W 122°30'714.3
2018-Jun-30 03:30N 36°41' W 122°27'714.1
2018-Jun-30 03:00N 36°35' W 122°24'714.5
2018-Jun-30 02:30N 36°28' W 122°20'815.1
2018-Jun-30 02:00N 36°21' W 122°17'714.6
2018-Jun-30 01:30N 36°15' W 122°13'714.0
2018-Jun-30 01:00N 36°09' W 122°08'714.3
2018-Jun-30 00:30N 36°03' W 122°04'714.7
2018-Jun-30 00:00N 35°56' W 121°59'714.8
2018-Jun-29 23:30N 35°50' W 121°54'815.1
2018-Jun-29 23:00N 35°44' W 121°49'815.9
2018-Jun-29 22:30N 35°37' W 121°44'918.3
2018-Jun-29 22:00N 35°29' W 121°38'918.6
2018-Jun-29 21:30N 35°21' W 121°33'918.6
2018-Jun-29 21:00N 35°13' W 121°27'918.6
2018-Jun-29 20:30N 35°05' W 121°21'1019.1
2018-Jun-29 20:00N 34°57' W 121°15'918.8
2018-Jun-29 19:30N 34°49' W 121°09'918.5
2018-Jun-29 19:00N 34°41' W 121°03'1019.1
2018-Jun-29 18:30N 34°33' W 120°57'917.2
2018-Jun-29 18:00N 34°26' W 120°51'815.1
2018-Jun-29 17:30N 34°24' W 120°42'714.8
2018-Jun-29 17:00N 34°22' W 120°33'815.2
2018-Jun-29 16:28N 34°20' W 120°23'715.0
2018-Jun-29 16:00N 34°18' W 120°15'815.2
2018-Jun-29 15:29N 34°16' W 120°06'815.0
2018-Jun-29 14:59N 34°14' W 119°57'715.1
2018-Jun-29 14:30N 34°12' W 119°49'815.1
2018-Jun-29 14:00N 34°10' W 119°40'815.3
2018-Jun-29 13:28N 34°08' W 119°30'714.9
2018-Jun-29 13:00N 34°06' W 119°23'815.0
2018-Jun-29 12:30N 34°04' W 119°14'714.7
2018-Jun-29 12:00N 33°60' W 119°06'613.2
2018-Jun-29 11:30N 33°57' W 118°59'611.5
2018-Jun-29 11:00N 33°54' W 118°53'611.7
2018-Jun-29 10:30N 33°51' W 118°47'612.0
2018-Jun-29 10:00N 33°48' W 118°41'612.0
2018-Jun-29 09:30N 33°45' W 118°35'611.8
2018-Jun-29 09:00N 33°42' W 118°29'611.7
2018-Jun-29 08:30N 33°39' W 118°22'611.5
2018-Jun-29 08:00N 33°39' W 118°15'510.0
2018-Jun-29 07:30N 33°42' W 118°11'3 6.8
2018-Jun-29 07:00N 33°45' W 118°13'1 2.1
2018-Jun-29 06:30N 33°46' W 118°14'0 0.0
2018-Jun-29 05:58N 33°46' W 118°14'0 0.0
2018-Jun-29 05:28N 33°46' W 118°14'0 0.0
2018-Jun-29 04:58N 33°46' W 118°14'0 0.0
2018-Jun-29 04:28N 33°46' W 118°14'0 0.0
2018-Jun-29 03:58N 33°46' W 118°14'0 0.0
2018-Jun-29 03:28N 33°46' W 118°14'0 0.0
2018-Jun-29 02:58N 33°46' W 118°14'0 0.0
2018-Jun-29 02:28N 33°46' W 118°14'0 0.0
2018-Jun-29 01:58N 33°46' W 118°14'0 0.0
2018-Jun-29 01:28N 33°46' W 118°14'0 0.0
2018-Jun-29 00:58N 33°46' W 118°14'0 0.0
2018-Jun-29 00:28N 33°46' W 118°14'0 0.0
2018-Jun-28 23:58N 33°46' W 118°14'0 0.0
2018-Jun-28 23:28N 33°46' W 118°14'0 0.0
2018-Jun-28 22:58N 33°46' W 118°14'0 0.0
2018-Jun-28 22:28N 33°46' W 118°14'0 0.0
2018-Jun-28 21:58N 33°46' W 118°14'0 0.0
2018-Jun-28 21:28N 33°46' W 118°14'0 0.0
2018-Jun-28 20:58N 33°46' W 118°14'0 0.1
2018-Jun-28 20:28N 33°46' W 118°14'0 0.1
2018-Jun-28 19:58N 33°46' W 118°14'0 0.0
2018-Jun-28 19:25N 33°46' W 118°14'0 0.0
2018-Jun-28 18:58N 33°46' W 118°14'0 0.0
2018-Jun-28 18:28N 33°46' W 118°14'0 0.0
2018-Jun-28 17:58N 33°46' W 118°14'0 0.0
2018-Jun-28 17:28N 33°46' W 118°14'0 0.0
2018-Jun-28 16:58N 33°46' W 118°14'0 0.0
2018-Jun-28 16:28N 33°46' W 118°14'0 0.0
2018-Jun-28 15:58N 33°46' W 118°14'0 0.0
2018-Jun-28 15:28N 33°46' W 118°14'0 0.0
2018-Jun-28 14:58N 33°46' W 118°14'0 0.0
2018-Jun-28 14:28N 33°46' W 118°14'0 0.0
2018-Jun-28 13:58N 33°46' W 118°14'0 0.0
2018-Jun-28 13:29N 33°46' W 118°14'0 1.0
2018-Jun-28 13:00N 33°46' W 118°13'2 4.2
2018-Jun-28 12:30N 33°44' W 118°12'5 9.7
2018-Jun-28 12:00N 33°40' W 118°10'510.6
2018-Jun-28 11:30N 33°35' W 118°09'5 9.6
2018-Jun-28 11:00N 33°30' W 118°07'611.4
2018-Jun-28 10:30N 33°25' W 118°05'611.5
2018-Jun-28 10:00N 33°19' W 118°03'611.9
2018-Jun-28 09:30N 33°14' W 118°00'612.0
2018-Jun-28 09:00N 33°08' W 117°58'713.7
2018-Jun-28 08:30N 33°02' W 117°54'816.0
2018-Jun-28 08:01N 32°55' W 117°50'816.0
2018-Jun-28 07:31N 32°48' W 117°46'815.8
2018-Jun-28 07:00N 32°40' W 117°42'815.7
2018-Jun-28 06:31N 32°33' W 117°39'816.0
2018-Jun-28 06:00N 32°25' W 117°36'816.1
2018-Jun-28 05:31N 32°18' W 117°33'815.9
2018-Jun-28 05:00N 32°10' W 117°30'815.6
2018-Jun-28 04:30N 32°03' W 117°26'815.9
2018-Jun-28 04:00N 31°55' W 117°23'816.0
2018-Jun-28 03:31N 31°48' W 117°20'816.1
2018-Jun-28 03:00N 31°40' W 117°17'816.1
2018-Jun-28 02:30N 31°32' W 117°14'815.9
2018-Jun-28 02:01N 31°25' W 117°11'815.9
2018-Jun-28 01:31N 31°17' W 117°08'815.7
2018-Jun-28 01:00N 31°10' W 117°05'815.7
2018-Jun-28 00:30N 31°03' W 117°02'815.8
2018-Jun-28 00:00N 30°55' W 116°59'815.8
2018-Jun-27 23:30N 30°48' W 116°56'815.9
2018-Jun-27 23:00N 30°40' W 116°53'815.6
2018-Jun-27 22:30N 30°33' W 116°50'2315.8
2018-Jun-27 21:02N 30°11' W 116°41'115.9
2018-Jun-27 21:00N 30°10' W 116°41'713.9
2018-Jun-27 20:30N 30°04' W 116°39'1 1.8
2018-Jun-27 20:00N 30°04' W 116°40'2015.7
2018-Jun-27 18:44N 29°45' W 116°31'416.3
2018-Jun-27 18:30N 29°41' W 116°30'2516.5
2018-Jun-27 17:00N 29°18' W 116°21'816.6
2018-Jun-27 16:31N 29°10' W 116°17'816.6
2018-Jun-27 16:00N 29°02' W 116°14'2417.2
2018-Jun-27 14:35N 28°39' W 116°05'316.3
2018-Jun-27 14:22N 28°36' W 116°04'816.5
2018-Jun-27 13:52N 28°28' W 116°01'616.4
2018-Jun-27 13:29N 28°22' W 115°58'1016.4
2018-Jun-27 12:51N 28°12' W 115°55'616.2
2018-Jun-27 12:30N 28°07' W 115°53'816.5
2018-Jun-27 12:00N 27°60' W 115°49'816.7
2018-Jun-27 11:30N 27°53' W 115°44'1816.7
2018-Jun-27 10:25N 27°38' W 115°32'716.9
2018-Jun-27 10:00N 27°32' W 115°27'816.8
2018-Jun-27 09:30N 27°25' W 115°22'916.7
2018-Jun-27 08:59N 27°18' W 115°16'816.6
2018-Jun-27 08:30N 27°12' W 115°11'816.4
2018-Jun-27 07:59N 27°05' W 115°05'816.2
2018-Jun-27 07:29N 26°59' W 114°60'916.4
2018-Jun-27 06:56N 26°51' W 114°53'816.3
2018-Jun-27 06:27N 26°45' W 114°48'816.2
2018-Jun-27 05:59N 26°39' W 114°43'1016.4
2018-Jun-27 05:23N 26°31' W 114°37'  
Track history (hours):
 
Tides and Currents Weather Stations Pressure Air Temp Water Temp Dewpoint Dewpoint Depression Visibility Wind Speed Wind Dir Waves Ship Positions

Tasman Crusader

Last reported at 2018-Jul-02 15:02 UTC. Time now 2018-Jul-16 00:39 UTC.
Position N 28°30' W 116°13'.
Warning: this ship's position is 13 days out of date.

Length 186 m; draft 8.6 m.

Type: Ship (hazmat cat A). MMSI: 636091434.

Date/timePositionNaut miles runAvg speedWind from/ knotsBaromVisibWave heightAir tempDewpointWater temp
2018-Jul-02 15:02N 28°30' W 116°13'118.5
2018-Jul-02 15:00N 28°30' W 116°14'1718.4
2018-Jul-02 14:05N 28°44' W 116°25'118.6
2018-Jul-02 14:00N 28°45' W 116°26'15318.8
2018-Jul-02 05:53N 30°51' W 118°06'718.7
2018-Jul-02 05:31N 30°57' W 118°11'1318.8
2018-Jul-02 04:50N 31°07' W 118°19'618.5
2018-Jul-02 04:31N 31°12' W 118°23'918.6
2018-Jul-02 04:00N 31°20' W 118°29'1018.8
2018-Jul-02 03:29N 31°28' W 118°36'918.5
2018-Jul-02 03:00N 31°35' W 118°42'1118.5
2018-Jul-02 02:24N 31°44' W 118°50'719.0
2018-Jul-02 02:00N 31°50' W 118°55'1019.2
2018-Jul-02 01:30N 31°58' W 119°02'918.9
2018-Jul-02 01:01N 32°05' W 119°09'919.0
2018-Jul-02 00:31N 32°12' W 119°16'1019.0
2018-Jul-02 00:00N 32°21' W 119°22'918.9
2018-Jul-01 23:30N 32°28' W 119°28'919.2
2018-Jul-01 23:01N 32°36' W 119°35'1319.4
2018-Jul-01 22:21N 32°46' W 119°44'819.7
2018-Jul-01 21:58N 32°52' W 119°50'919.6
2018-Jul-01 21:30N 32°59' W 119°56'1019.1
2018-Jul-01 21:01N 33°07' W 120°02'918.6
2018-Jul-01 20:31N 33°15' W 120°09'918.3
2018-Jul-01 20:00N 33°22' W 120°15'918.8
2018-Jul-01 19:31N 33°30' W 120°22'1019.0
2018-Jul-01 19:00N 33°37' W 120°29'919.0
2018-Jul-01 18:30N 33°45' W 120°36'918.5
2018-Jul-01 18:01N 33°52' W 120°42'1019.0
2018-Jul-01 17:30N 34°00' W 120°49'1018.6
2018-Jul-01 16:59N 34°08' W 120°56'918.7
2018-Jul-01 16:30N 34°15' W 121°02'1019.1
2018-Jul-01 16:00N 34°23' W 121°09'1019.1
2018-Jul-01 15:29N 34°31' W 121°15'919.3
2018-Jul-01 15:00N 34°40' W 121°20'919.0
2018-Jul-01 14:30N 34°48' W 121°25'1019.3
2018-Jul-01 14:00N 34°57' W 121°30'1019.1
2018-Jul-01 13:30N 35°06' W 121°35'1019.1
2018-Jul-01 13:00N 35°14' W 121°40'919.5
2018-Jul-01 12:30N 35°23' W 121°45'1019.6
2018-Jul-01 12:00N 35°32' W 121°51'1019.4
2018-Jul-01 11:29N 35°41' W 121°56'919.2
2018-Jul-01 11:00N 35°49' W 122°01'1019.5
2018-Jul-01 10:30N 35°58' W 122°06'1020.3
2018-Jul-01 10:00N 36°07' W 122°12'1019.9
2018-Jul-01 09:30N 36°16' W 122°17'1019.8
2018-Jul-01 09:00N 36°25' W 122°22'918.9
2018-Jul-01 08:30N 36°34' W 122°26'919.0
2018-Jul-01 08:00N 36°43' W 122°30'1019.4
2018-Jul-01 07:30N 36°52' W 122°34'1019.3
2018-Jul-01 06:58N 37°02' W 122°38'919.1
2018-Jul-01 06:30N 37°10' W 122°42'917.5
2018-Jul-01 06:00N 37°19' W 122°43'510.0
2018-Jul-01 05:31N 37°24' W 122°43'5 9.9
2018-Jul-01 05:01N 37°29' W 122°43'5 9.9
2018-Jul-01 04:30N 37°34' W 122°43'510.0
2018-Jul-01 04:00N 37°39' W 122°43'5 9.7
2018-Jul-01 03:31N 37°43' W 122°41'5 9.6
2018-Jul-01 03:00N 37°46' W 122°37'917.7
2018-Jul-01 02:30N 37°49' W 122°26'612.5
2018-Jul-01 02:00N 37°48' W 122°18'0 0.2
2018-Jul-01 01:30N 37°48' W 122°19'0 0.0
2018-Jul-01 00:58N 37°48' W 122°19'0 0.0
2018-Jul-01 00:28N 37°48' W 122°19'0 0.0
2018-Jun-30 23:58N 37°48' W 122°19'0 0.0
2018-Jun-30 23:28N 37°48' W 122°19'0 0.0
2018-Jun-30 22:58N 37°48' W 122°19'0 0.0
2018-Jun-30 22:28N 37°48' W 122°19'0 0.0
2018-Jun-30 21:58N 37°48' W 122°19'0 0.1
2018-Jun-30 21:28N 37°48' W 122°19'0 0.1
2018-Jun-30 20:58N 37°48' W 122°19'0 0.0
2018-Jun-30 20:28N 37°48' W 122°19'0 0.0
2018-Jun-30 19:58N 37°48' W 122°19'0 0.0
2018-Jun-30 19:28N 37°48' W 122°19'0 0.0
2018-Jun-30 18:58N 37°48' W 122°19'0 0.0
2018-Jun-30 18:28N 37°48' W 122°19'0 0.0
2018-Jun-30 17:58N 37°48' W 122°19'0 0.0
2018-Jun-30 17:28N 37°48' W 122°19'0 0.0
2018-Jun-30 16:58N 37°48' W 122°19'0 0.0
2018-Jun-30 16:28N 37°48' W 122°19'0 0.0
2018-Jun-30 15:58N 37°48' W 122°19'0 0.0
2018-Jun-30 15:28N 37°48' W 122°19'0 0.0
2018-Jun-30 14:58N 37°48' W 122°19'0 0.0
2018-Jun-30 14:28N 37°48' W 122°19'0 0.0
2018-Jun-30 13:58N 37°48' W 122°19'0 0.0
2018-Jun-30 13:28N 37°48' W 122°19'0 0.0
2018-Jun-30 12:58N 37°48' W 122°19'0 0.0
2018-Jun-30 12:28N 37°48' W 122°19'0 0.0
2018-Jun-30 11:58N 37°48' W 122°19'0 0.0
2018-Jun-30 11:30N 37°48' W 122°19'0 0.7
2018-Jun-30 11:00N 37°48' W 122°19'3 6.8
2018-Jun-30 10:31N 37°49' W 122°23'5 9.1
2018-Jun-30 10:00N 37°49' W 122°29'714.5
2018-Jun-30 09:30N 37°46' W 122°37'5 9.3
2018-Jun-30 09:00N 37°42' W 122°40'5 9.6
2018-Jun-30 08:30N 37°37' W 122°40'5 9.7
2018-Jun-30 08:00N 37°33' W 122°40'5 9.8
2018-Jun-30 07:30N 37°28' W 122°40'5 9.9
2018-Jun-30 07:00N 37°23' W 122°40'5 9.8
2018-Jun-30 06:30N 37°18' W 122°40'510.9
2018-Jun-30 06:00N 37°12' W 122°40'611.7
2018-Jun-30 05:30N 37°07' W 122°39'611.9
2018-Jun-30 05:00N 37°01' W 122°36'613.0
2018-Jun-30 04:30N 36°55' W 122°33'814.5
2018-Jun-30 03:58N 36°48' W 122°30'714.3
2018-Jun-30 03:30N 36°41' W 122°27'714.1
2018-Jun-30 03:00N 36°35' W 122°24'714.5
2018-Jun-30 02:30N 36°28' W 122°20'815.1
2018-Jun-30 02:00N 36°21' W 122°17'714.6
2018-Jun-30 01:30N 36°15' W 122°13'714.0
2018-Jun-30 01:00N 36°09' W 122°08'714.3
2018-Jun-30 00:30N 36°03' W 122°04'714.7
2018-Jun-30 00:00N 35°56' W 121°59'714.8
2018-Jun-29 23:30N 35°50' W 121°54'815.1
2018-Jun-29 23:00N 35°44' W 121°49'815.9
2018-Jun-29 22:30N 35°37' W 121°44'918.3
2018-Jun-29 22:00N 35°29' W 121°38'918.6
2018-Jun-29 21:30N 35°21' W 121°33'918.6
2018-Jun-29 21:00N 35°13' W 121°27'918.6
2018-Jun-29 20:30N 35°05' W 121°21'1019.1
2018-Jun-29 20:00N 34°57' W 121°15'918.8
2018-Jun-29 19:30N 34°49' W 121°09'918.5
2018-Jun-29 19:00N 34°41' W 121°03'1019.1
2018-Jun-29 18:30N 34°33' W 120°57'917.2
2018-Jun-29 18:00N 34°26' W 120°51'815.1
2018-Jun-29 17:30N 34°24' W 120°42'714.8
2018-Jun-29 17:00N 34°22' W 120°33'815.2
2018-Jun-29 16:28N 34°20' W 120°23'715.0
2018-Jun-29 16:00N 34°18' W 120°15'815.2
2018-Jun-29 15:29N 34°16' W 120°06'815.0
2018-Jun-29 14:59N 34°14' W 119°57'715.1
2018-Jun-29 14:30N 34°12' W 119°49'815.1
2018-Jun-29 14:00N 34°10' W 119°40'815.3
2018-Jun-29 13:28N 34°08' W 119°30'714.9
2018-Jun-29 13:00N 34°06' W 119°23'815.0
2018-Jun-29 12:30N 34°04' W 119°14'714.7
2018-Jun-29 12:00N 33°60' W 119°06'613.2
2018-Jun-29 11:30N 33°57' W 118°59'611.5
2018-Jun-29 11:00N 33°54' W 118°53'611.7
2018-Jun-29 10:30N 33°51' W 118°47'612.0
2018-Jun-29 10:00N 33°48' W 118°41'612.0
2018-Jun-29 09:30N 33°45' W 118°35'611.8
2018-Jun-29 09:00N 33°42' W 118°29'611.7
2018-Jun-29 08:30N 33°39' W 118°22'611.5
2018-Jun-29 08:00N 33°39' W 118°15'510.0
2018-Jun-29 07:30N 33°42' W 118°11'3 6.8
2018-Jun-29 07:00N 33°45' W 118°13'1 2.1
2018-Jun-29 06:30N 33°46' W 118°14'0 0.0
2018-Jun-29 05:58N 33°46' W 118°14'0 0.0
2018-Jun-29 05:28N 33°46' W 118°14'0 0.0
2018-Jun-29 04:58N 33°46' W 118°14'0 0.0
2018-Jun-29 04:28N 33°46' W 118°14'0 0.0
2018-Jun-29 03:58N 33°46' W 118°14'0 0.0
2018-Jun-29 03:28N 33°46' W 118°14'0 0.0
2018-Jun-29 02:58N 33°46' W 118°14'0 0.0
2018-Jun-29 02:28N 33°46' W 118°14'0 0.0
2018-Jun-29 01:58N 33°46' W 118°14'0 0.0
2018-Jun-29 01:28N 33°46' W 118°14'0 0.0
2018-Jun-29 00:58N 33°46' W 118°14'0 0.0
2018-Jun-29 00:28N 33°46' W 118°14'0 0.0
2018-Jun-28 23:58N 33°46' W 118°14'0 0.0
2018-Jun-28 23:28N 33°46' W 118°14'0 0.0
2018-Jun-28 22:58N 33°46' W 118°14'0 0.0
2018-Jun-28 22:28N 33°46' W 118°14'0 0.0
2018-Jun-28 21:58N 33°46' W 118°14'0 0.0
2018-Jun-28 21:28N 33°46' W 118°14'0 0.0
2018-Jun-28 20:58N 33°46' W 118°14'0 0.1
2018-Jun-28 20:28N 33°46' W 118°14'0 0.1
2018-Jun-28 19:58N 33°46' W 118°14'0 0.0
2018-Jun-28 19:25N 33°46' W 118°14'0 0.0
2018-Jun-28 18:58N 33°46' W 118°14'0 0.0
2018-Jun-28 18:28N 33°46' W 118°14'0 0.0
2018-Jun-28 17:58N 33°46' W 118°14'0 0.0
2018-Jun-28 17:28N 33°46' W 118°14'0 0.0
2018-Jun-28 16:58N 33°46' W 118°14'0 0.0
2018-Jun-28 16:28N 33°46' W 118°14'0 0.0
2018-Jun-28 15:58N 33°46' W 118°14'0 0.0
2018-Jun-28 15:28N 33°46' W 118°14'0 0.0
2018-Jun-28 14:58N 33°46' W 118°14'0 0.0
2018-Jun-28 14:28N 33°46' W 118°14'0 0.0
2018-Jun-28 13:58N 33°46' W 118°14'0 0.0
2018-Jun-28 13:29N 33°46' W 118°14'0 1.0
2018-Jun-28 13:00N 33°46' W 118°13'2 4.2
2018-Jun-28 12:30N 33°44' W 118°12'5 9.7
2018-Jun-28 12:00N 33°40' W 118°10'510.6
2018-Jun-28 11:30N 33°35' W 118°09'5 9.6
2018-Jun-28 11:00N 33°30' W 118°07'611.4
2018-Jun-28 10:30N 33°25' W 118°05'611.5
2018-Jun-28 10:00N 33°19' W 118°03'611.9
2018-Jun-28 09:30N 33°14' W 118°00'612.0
2018-Jun-28 09:00N 33°08' W 117°58'713.7
2018-Jun-28 08:30N 33°02' W 117°54'816.0
2018-Jun-28 08:01N 32°55' W 117°50'816.0
2018-Jun-28 07:31N 32°48' W 117°46'815.8
2018-Jun-28 07:00N 32°40' W 117°42'815.7
2018-Jun-28 06:31N 32°33' W 117°39'816.0
2018-Jun-28 06:00N 32°25' W 117°36'816.1
2018-Jun-28 05:31N 32°18' W 117°33'815.9
2018-Jun-28 05:00N 32°10' W 117°30'815.6
2018-Jun-28 04:30N 32°03' W 117°26'815.9
2018-Jun-28 04:00N 31°55' W 117°23'816.0
2018-Jun-28 03:31N 31°48' W 117°20'816.1
2018-Jun-28 03:00N 31°40' W 117°17'816.1
2018-Jun-28 02:30N 31°32' W 117°14'815.9
2018-Jun-28 02:01N 31°25' W 117°11'815.9
2018-Jun-28 01:31N 31°17' W 117°08'815.7
2018-Jun-28 01:00N 31°10' W 117°05'815.7
2018-Jun-28 00:30N 31°03' W 117°02'815.8
2018-Jun-28 00:00N 30°55' W 116°59'815.8
2018-Jun-27 23:30N 30°48' W 116°56'815.9
2018-Jun-27 23:00N 30°40' W 116°53'815.6
2018-Jun-27 22:30N 30°33' W 116°50'2315.8
2018-Jun-27 21:02N 30°11' W 116°41'115.9
2018-Jun-27 21:00N 30°10' W 116°41'713.9
2018-Jun-27 20:30N 30°04' W 116°39'1 1.8
2018-Jun-27 20:00N 30°04' W 116°40'2015.7
2018-Jun-27 18:44N 29°45' W 116°31'416.3
2018-Jun-27 18:30N 29°41' W 116°30'2516.5
2018-Jun-27 17:00N 29°18' W 116°21'816.6
2018-Jun-27 16:31N 29°10' W 116°17'816.6
2018-Jun-27 16:00N 29°02' W 116°14'2417.2
2018-Jun-27 14:35N 28°39' W 116°05'316.3
2018-Jun-27 14:22N 28°36' W 116°04'816.5
2018-Jun-27 13:52N 28°28' W 116°01'616.4
2018-Jun-27 13:29N 28°22' W 115°58'1016.4
2018-Jun-27 12:51N 28°12' W 115°55'616.2
2018-Jun-27 12:30N 28°07' W 115°53'816.5
2018-Jun-27 12:00N 27°60' W 115°49'816.7
2018-Jun-27 11:30N 27°53' W 115°44'1816.7
2018-Jun-27 10:25N 27°38' W 115°32'716.9
2018-Jun-27 10:00N 27°32' W 115°27'816.8
2018-Jun-27 09:30N 27°25' W 115°22'916.7
2018-Jun-27 08:59N 27°18' W 115°16'816.6
2018-Jun-27 08:30N 27°12' W 115°11'816.4
2018-Jun-27 07:59N 27°05' W 115°05'816.2
2018-Jun-27 07:29N 26°59' W 114°60'916.4
2018-Jun-27 06:56N 26°51' W 114°53'816.3
2018-Jun-27 06:27N 26°45' W 114°48'816.2
2018-Jun-27 05:59N 26°39' W 114°43'1016.4
2018-Jun-27 05:23N 26°31' W 114°37'  

Dump ship's entire track history